Time;durP1;ratioP1;P1;durP2;ratioP2;P2;SDS_P1;SDS_P2;PMS_P1;PMS_P2;Temp;Humidity;BMP_temperature;BMP_pressure;BME280_temperature;BME280_humidity;BME280_pressure;Samples;Min_cycle;Max_cycle;Signal;HPM_P1;HPM_P2
2021/06/10 00:00:37;;;;;;;7.57;3.80;;;18.60;99.90;;;;;;4975408;28;20107;-82
2021/06/10 00:03:04;;;;;;;7.35;3.92;;;18.60;99.90;;;;;;4976323;28;20445;-83
2021/06/10 00:05:30;;;;;;;7.53;4.00;;;18.50;99.90;;;;;;4976307;28;20026;-82
2021/06/10 00:07:56;;;;;;;5.18;4.00;;;18.50;99.90;;;;;;4988986;28;20085;-82
2021/06/10 00:10:24;;;;;;;16.00;4.72;;;18.50;99.90;;;;;;4982607;28;20026;-86
2021/06/10 00:12:51;;;;;;;8.68;4.05;;;18.50;99.90;;;;;;4975873;28;20106;-82
2021/06/10 00:15:24;;;;;;;10.07;4.57;;;18.50;99.90;;;;;;4982693;28;20018;-82
2021/06/10 00:17:50;;;;;;;10.02;4.45;;;18.50;99.90;;;;;;4976181;28;20059;-81
2021/06/10 00:20:17;;;;;;;10.57;4.78;;;18.40;99.90;;;;;;4983608;28;20025;-82
2021/06/10 00:22:44;;;;;;;9.57;4.45;;;18.40;99.90;;;;;;4976727;28;20081;-82
2021/06/10 00:25:10;;;;;;;9.48;4.78;;;18.50;99.90;;;;;;4984366;28;20491;-82
2021/06/10 00:27:38;;;;;;;9.30;5.10;;;18.50;99.90;;;;;;4977477;28;20033;-82
2021/06/10 00:30:10;;;;;;;10.10;5.30;;;18.50;99.90;;;;;;4980366;28;20085;-82
2021/06/10 00:32:36;;;;;;;10.30;5.00;;;18.50;99.90;;;;;;4978139;28;20031;-82
2021/06/10 00:35:02;;;;;;;11.80;5.05;;;18.40;99.90;;;;;;4986506;28;20026;-82
2021/06/10 00:37:28;;;;;;;13.10;5.90;;;18.50;99.90;;;;;;4980733;28;20022;-82
2021/06/10 00:39:53;;;;;;;17.05;5.32;;;18.40;99.90;;;;;;4979816;28;20026;-82
2021/06/10 00:42:20;;;;;;;10.82;5.95;;;18.50;99.90;;;;;;4982355;28;20106;-82
2021/06/10 00:44:46;;;;;;;12.38;5.75;;;18.40;99.90;;;;;;4996100;28;20461;-81
2021/06/10 00:47:12;;;;;;;11.93;5.72;;;18.40;99.90;;;;;;4983907;28;20119;-82
2021/06/10 00:49:37;;;;;;;10.18;5.60;;;18.40;99.90;;;;;;4979767;28;20030;-82
2021/06/10 00:52:04;;;;;;;13.30;5.60;;;18.40;99.90;;;;;;4972629;28;20289;-82
2021/06/10 00:54:30;;;;;;;10.77;5.70;;;18.40;99.90;;;;;;4983433;28;20384;-82
2021/06/10 00:56:56;;;;;;;11.27;6.25;;;18.30;99.90;;;;;;4972759;28;20074;-82
2021/06/10 00:59:21;;;;;;;10.48;5.85;;;18.30;99.90;;;;;;4979082;28;20027;-82
2021/06/10 01:01:47;;;;;;;12.57;6.20;;;18.30;99.90;;;;;;4983750;28;20403;-82
2021/06/10 01:04:13;;;;;;;14.60;6.43;;;18.30;99.90;;;;;;4981216;28;20243;-82
2021/06/10 01:06:42;;;;;;;16.02;6.30;;;18.30;99.90;;;;;;4974380;28;20072;-82
2021/06/10 01:09:28;;;;;;;13.88;5.93;;;18.30;99.90;;;;;;4976186;28;20030;-82
2021/06/10 01:12:03;;;;;;;11.98;6.00;;;18.40;99.90;;;;;;4986089;28;20476;-82
2021/06/10 01:14:52;;;;;;;11.90;5.90;;;18.30;99.90;;;;;;4978773;28;20034;-82
2021/06/10 01:17:18;;;;;;;15.15;6.45;;;18.40;99.90;;;;;;4972714;28;20082;-82
2021/06/10 01:20:05;;;;;;;12.77;6.85;;;18.40;99.90;;;;;;4983014;28;20038;-82
2021/06/10 01:22:56;;;;;;;13.77;7.15;;;18.30;99.90;;;;;;4972962;28;20423;-82
2021/06/10 01:25:34;;;;;;;12.68;6.57;;;18.30;99.90;;;;;;4980358;28;20034;-82
2021/06/10 01:28:17;;;;;;;12.32;6.50;;;18.30;99.90;;;;;;4974605;28;20030;-82
2021/06/10 01:30:49;;;;;;;14.40;6.88;;;18.30;99.90;;;;;;4980784;28;20387;-81
2021/06/10 01:33:43;;;;;;;11.57;6.65;;;18.20;99.90;;;;;;4975059;28;20030;-82
2021/06/10 01:36:18;;;;;;;11.65;6.90;;;18.30;99.90;;;;;;4973284;28;20388;-82
2021/06/10 01:38:45;;;;;;;12.52;6.93;;;18.20;99.90;;;;;;4974579;28;20019;-82
2021/06/10 01:41:12;;;;;;;13.93;7.20;;;18.20;99.90;;;;;;4977195;28;20027;-82
2021/06/10 01:43:40;;;;;;;15.63;7.68;;;18.20;99.90;;;;;;4974644;28;20049;-82
2021/06/10 01:46:08;;;;;;;10.75;7.30;;;18.20;99.90;;;;;;4976560;28;20030;-82
2021/06/10 01:48:34;;;;;;;12.02;6.53;;;18.30;99.90;;;;;;4973842;28;20424;-82
2021/06/10 01:51:02;;;;;;;11.75;6.53;;;18.30;99.90;;;;;;4979689;28;20082;-82
2021/06/10 01:53:29;;;;;;;11.32;7.82;;;18.30;99.90;;;;;;4974639;28;20035;-82
2021/06/10 01:56:00;;;;;;;13.27;7.35;;;18.30;99.90;;;;;;4981388;28;20018;-82
2021/06/10 01:58:27;;;;;;;12.13;7.15;;;18.30;99.90;;;;;;4974239;28;20043;-82
2021/06/10 02:00:53;;;;;;;13.98;7.35;;;18.30;99.90;;;;;;4976784;28;20050;-82
2021/06/10 02:03:23;;;;;;;11.10;7.18;;;18.30;99.90;;;;;;4971509;28;20023;-82
2021/06/10 02:05:50;;;;;;;12.02;7.65;;;18.30;99.90;;;;;;4971266;28;20041;-82
2021/06/10 02:08:18;;;;;;;13.77;7.53;;;18.30;99.90;;;;;;4975620;28;20023;-82
2021/06/10 02:10:48;;;;;;;11.65;7.05;;;18.30;99.90;;;;;;4972418;28;20042;-82
2021/06/10 02:13:17;;;;;;;12.80;7.68;;;18.30;99.90;;;;;;4974223;28;20427;-82
2021/06/10 02:15:44;;;;;;;14.10;8.00;;;18.30;99.90;;;;;;4975761;28;20094;-82
2021/06/10 02:18:12;;;;;;;10.88;7.57;;;18.30;99.90;;;;;;4973857;28;20030;-82
2021/06/10 02:20:38;;;;;;;10.27;7.53;;;18.30;99.90;;;;;;4971309;28;20423;-82
2021/06/10 02:23:05;;;;;;;15.25;7.82;;;18.20;99.90;;;;;;4973776;28;20018;-82
2021/06/10 02:25:31;;;;;;;13.48;8.05;;;18.30;99.90;;;;;;4961998;28;20043;-82
2021/06/10 02:27:57;;;;;;;13.77;8.95;;;18.20;99.90;;;;;;4973758;28;20545;-82
2021/06/10 02:30:23;;;;;;;18.70;8.57;;;18.20;99.90;;;;;;4973400;28;20030;-82
2021/06/10 02:32:49;;;;;;;13.35;9.55;;;18.20;99.90;;;;;;4972754;28;20029;-82
2021/06/10 02:35:16;;;;;;;15.20;8.70;;;18.20;99.90;;;;;;4974584;28;20081;-82
2021/06/10 02:37:46;;;;;;;15.88;9.10;;;18.20;99.90;;;;;;4971606;28;20022;-82
2021/06/10 02:40:14;;;;;;;13.18;9.13;;;18.20;99.90;;;;;;4991263;28;20038;-82
2021/06/10 02:42:41;;;;;;;12.93;8.80;;;18.20;99.90;;;;;;4971914;28;20141;-82
2021/06/10 02:45:08;;;;;;;15.32;9.15;;;18.20;99.90;;;;;;4977733;28;20035;-82
2021/06/10 02:47:35;;;;;;;13.70;10.05;;;18.20;99.90;;;;;;4971154;28;20120;-82
2021/06/10 02:50:04;;;;;;;13.27;9.32;;;18.10;99.90;;;;;;4978878;28;20026;-82
2021/06/10 02:52:30;;;;;;;14.13;10.13;;;18.20;99.90;;;;;;4971060;28;20019;-82
2021/06/10 02:54:56;;;;;;;12.40;9.13;;;18.20;99.90;;;;;;4974401;28;20488;-82
2021/06/10 02:57:24;;;;;;;17.33;10.98;;;18.20;99.90;;;;;;4970972;28;20531;-82
2021/06/10 02:59:52;;;;;;;16.05;10.27;;;18.20;99.90;;;;;;4979408;28;20027;-82
2021/06/10 03:02:19;;;;;;;15.32;11.50;;;18.20;99.90;;;;;;4970917;28;20037;-82
2021/06/10 03:04:45;;;;;;;16.52;10.95;;;18.30;99.90;;;;;;4980042;28;20028;-82
2021/06/10 03:07:17;;;;;;;15.23;11.90;;;18.20;99.90;;;;;;4970988;28;20039;-82
2021/06/10 03:09:45;;;;;;;18.48;12.30;;;18.20;99.90;;;;;;4981187;28;20418;-82
2021/06/10 03:12:15;;;;;;;20.25;12.98;;;18.20;99.90;;;;;;4970727;28;20019;-82
2021/06/10 03:14:42;;;;;;;22.00;11.88;;;18.20;99.90;;;;;;4974811;28;20022;-82
2021/06/10 03:17:14;;;;;;;16.77;11.85;;;18.20;99.90;;;;;;4989142;28;20022;-82
2021/06/10 03:19:41;;;;;;;17.63;11.40;;;18.20;99.90;;;;;;4978215;28;20026;-82
2021/06/10 03:22:07;;;;;;;16.50;11.30;;;18.20;99.90;;;;;;4976221;28;20462;-82
2021/06/10 03:24:34;;;;;;;17.27;11.05;;;18.30;99.90;;;;;;4977185;28;20069;-82
2021/06/10 03:27:00;;;;;;;17.35;10.98;;;18.30;99.90;;;;;;4977838;28;20062;-82
2021/06/10 03:29:26;;;;;;;16.48;10.90;;;18.30;99.90;;;;;;4976858;28;20023;-83
2021/06/10 03:31:56;;;;;;;18.77;12.52;;;18.30;99.90;;;;;;4978888;28;20037;-82
2021/06/10 03:34:22;;;;;;;18.77;12.30;;;18.30;99.90;;;;;;4977013;28;20038;-82
2021/06/10 03:36:48;;;;;;;16.80;11.95;;;18.20;99.90;;;;;;4974394;28;20022;-82
2021/06/10 03:39:17;;;;;;;18.95;12.38;;;18.20;99.90;;;;;;4977754;28;20034;-82
2021/06/10 03:41:43;;;;;;;16.58;12.23;;;18.20;99.90;;;;;;4974269;28;20023;-82
2021/06/10 03:44:10;;;;;;;17.13;12.75;;;18.20;99.90;;;;;;4994215;28;20121;-82
2021/06/10 03:46:39;;;;;;;21.23;13.20;;;18.20;99.90;;;;;;4974005;28;20037;-82
2021/06/10 03:49:06;;;;;;;17.55;12.48;;;18.20;99.90;;;;;;4976713;28;20023;-82
2021/06/10 03:51:31;;;;;;;19.13;11.70;;;18.20;99.90;;;;;;4972580;28;20027;-82
2021/06/10 03:53:59;;;;;;;19.48;10.98;;;18.10;99.90;;;;;;4978424;28;20407;-82
2021/06/10 03:56:24;;;;;;;14.65;11.43;;;18.10;99.90;;;;;;4977073;28;20027;-82
2021/06/10 03:58:50;;;;;;;17.17;12.23;;;18.10;99.90;;;;;;4977817;28;20038;-82
2021/06/10 04:01:16;;;;;;;21.05;12.35;;;18.10;99.90;;;;;;4974339;28;20031;-82
2021/06/10 04:03:41;;;;;;;19.83;12.55;;;18.00;99.90;;;;;;4978197;28;20030;-82
2021/06/10 04:06:09;;;;;;;17.70;11.98;;;18.00;99.90;;;;;;4974072;28;20031;-82
2021/06/10 04:08:35;;;;;;;17.98;12.05;;;18.00;99.90;;;;;;4993710;28;20526;-82
2021/06/10 04:11:01;;;;;;;19.15;11.63;;;17.90;99.90;;;;;;4979768;28;20058;-82
2021/06/10 04:13:27;;;;;;;18.85;11.95;;;17.90;99.90;;;;;;4976077;28;20027;-82
2021/06/10 04:15:52;;;;;;;21.05;12.25;;;17.90;99.90;;;;;;4978066;28;20166;-82
2021/06/10 04:18:18;;;;;;;16.77;11.93;;;17.90;99.90;;;;;;4976210;28;20109;-82
2021/06/10 04:20:49;;;;;;;15.77;11.00;;;17.90;99.90;;;;;;4977851;28;20498;-82
2021/06/10 04:23:15;;;;;;;20.65;11.70;;;17.80;99.90;;;;;;4987636;28;20113;-82
2021/06/10 04:25:41;;;;;;;15.63;10.63;;;17.80;99.90;;;;;;4981792;28;20034;-82
2021/06/10 04:28:07;;;;;;;16.77;11.50;;;17.80;99.90;;;;;;4974572;28;20026;-82
2021/06/10 04:30:33;;;;;;;16.08;10.95;;;17.80;99.90;;;;;;4985614;28;20030;-82
2021/06/10 04:32:58;;;;;;;17.83;11.70;;;17.80;99.90;;;;;;4976802;28;20037;-82
2021/06/10 04:35:24;;;;;;;15.35;11.10;;;17.80;99.90;;;;;;4984955;28;20418;-82
2021/06/10 04:37:50;;;;;;;16.65;10.10;;;17.70;99.90;;;;;;4977640;28;20497;-82
2021/06/10 04:40:16;;;;;;;15.07;10.80;;;17.70;99.90;;;;;;4992328;28;20027;-82
2021/06/10 04:42:41;;;;;;;18.58;11.25;;;17.80;99.90;;;;;;4973436;28;20045;-82
2021/06/10 04:45:09;;;;;;;14.93;11.20;;;17.80;99.90;;;;;;4986004;28;20029;-82
2021/06/10 04:47:35;;;;;;;17.98;11.85;;;17.80;99.90;;;;;;4980193;28;20092;-82
2021/06/10 04:50:00;;;;;;;16.73;11.18;;;17.80;99.90;;;;;;4981009;28;20069;-82
2021/06/10 04:52:26;;;;;;;17.00;10.60;;;17.90;99.90;;;;;;4981619;28;20026;-82
2021/06/10 04:54:52;;;;;;;17.75;12.02;;;17.80;99.90;;;;;;4978638;28;20030;-82
2021/06/10 04:57:17;;;;;;;14.98;10.80;;;17.90;99.90;;;;;;4973195;28;20459;-82
2021/06/10 04:59:43;;;;;;;13.68;10.25;;;17.80;99.90;;;;;;4983531;28;20387;-82
2021/06/10 05:02:09;;;;;;;13.75;9.18;;;17.90;99.90;;;;;;4973039;28;20095;-82
2021/06/10 05:04:34;;;;;;;12.57;9.57;;;17.90;99.90;;;;;;4983608;28;20038;-82
2021/06/10 05:07:00;;;;;;;13.90;9.15;;;17.90;99.90;;;;;;4972497;28;20049;-83
2021/06/10 05:09:26;;;;;;;11.15;8.75;;;18.00;99.90;;;;;;4982610;28;20129;-82
2021/06/10 05:11:52;;;;;;;13.07;8.85;;;18.00;99.90;;;;;;4973440;28;20380;-82
2021/06/10 05:14:19;;;;;;;12.40;8.73;;;18.00;99.90;;;;;;4981345;28;20442;-82
2021/06/10 05:16:47;;;;;;;12.77;8.40;;;18.10;99.90;;;;;;4974285;28;20077;-83
2021/06/10 05:19:13;;;;;;;10.07;7.70;;;18.20;99.90;;;;;;4983212;28;20416;-82
2021/06/10 05:21:39;;;;;;;12.90;7.50;;;18.30;99.90;;;;;;4971772;28;20114;-83
2021/06/10 05:24:08;;;;;;;13.55;8.15;;;18.30;99.90;;;;;;4972986;28;20300;-83
2021/06/10 05:26:34;;;;;;;11.70;7.90;;;18.50;99.90;;;;;;4971521;28;20395;-84
2021/06/10 05:28:59;;;;;;;8.93;7.22;;;18.60;99.90;;;;;;4972853;28;20034;-83
2021/06/10 05:31:25;;;;;;;9.60;6.90;;;18.70;99.90;;;;;;4971917;28;20062;-84
2021/06/10 05:33:52;;;;;;;10.02;6.97;;;18.90;99.90;;;;;;4972701;28;20035;-83
2021/06/10 05:36:17;;;;;;;9.82;7.28;;;18.90;99.90;;;;;;4969143;28;20100;-83
2021/06/10 05:38:43;;;;;;;9.95;7.53;;;19.10;99.90;;;;;;4972706;28;20031;-83
2021/06/10 05:41:09;;;;;;;10.13;7.40;;;19.10;99.90;;;;;;4971367;28;20390;-83
2021/06/10 05:43:35;;;;;;;9.40;6.63;;;19.10;99.90;;;;;;4974822;28;20518;-83
2021/06/10 05:46:01;;;;;;;8.75;6.78;;;19.10;99.90;;;;;;4978122;28;20344;-83
2021/06/10 05:48:27;;;;;;;10.20;6.32;;;19.20;99.90;;;;;;4974185;28;20349;-83
2021/06/10 05:50:52;;;;;;;10.50;7.05;;;19.20;99.90;;;;;;4980373;28;20102;-84
2021/06/10 05:53:18;;;;;;;6.90;5.63;;;19.20;99.90;;;;;;4975167;28;20025;-83
2021/06/10 05:55:46;;;;;;;8.60;6.22;;;19.40;99.90;;;;;;4982982;28;20464;-83
2021/06/10 05:58:13;;;;;;;10.90;7.03;;;19.50;99.90;;;;;;4973678;28;20507;-83
2021/06/10 06:00:39;;;;;;;8.00;6.32;;;19.50;99.90;;;;;;4977473;28;20041;-83
2021/06/10 06:03:06;;;;;;;10.52;6.55;;;19.40;99.90;;;;;;4972725;28;20018;-84
2021/06/10 06:05:33;;;;;;;9.88;6.22;;;19.50;99.90;;;;;;4980764;28;20133;-83
2021/06/10 06:07:59;;;;;;;9.85;5.82;;;19.50;99.90;;;;;;4973105;28;20029;-83
2021/06/10 06:10:29;;;;;;;12.40;5.07;;;19.40;99.90;;;;;;4981129;28;20164;-85
2021/06/10 06:12:57;;;;;;;6.57;5.03;;;19.30;99.90;;;;;;4967470;28;20062;-85
2021/06/10 06:15:24;;;;;;;7.20;4.78;;;19.50;99.90;;;;;;4972485;28;20011;-86
2021/06/10 06:17:50;;;;;;;6.82;4.53;;;19.50;99.90;;;;;;4967787;28;20034;-87
2021/06/10 06:20:16;;;;;;;5.35;4.28;;;19.60;99.90;;;;;;4965160;28;20082;-87
2021/06/10 06:22:44;;;;;;;7.70;4.68;;;19.70;99.90;;;;;;4967696;28;20150;-87
2021/06/10 06:25:12;;;;;;;5.90;4.65;;;19.80;99.90;;;;;;4974840;28;20031;-87
2021/06/10 06:27:38;;;;;;;7.05;4.10;;;19.80;99.90;;;;;;4970718;28;20113;-86
2021/06/10 06:30:06;;;;;;;8.15;4.90;;;20.00;99.90;;;;;;4978524;28;20025;-87
2021/06/10 06:32:34;;;;;;;5.22;4.70;;;20.00;99.90;;;;;;4968307;28;20221;-86
2021/06/10 06:35:00;;;;;;;7.90;4.40;;;19.90;99.90;;;;;;4978316;28;20018;-87
2021/06/10 06:37:26;;;;;;;5.60;4.60;;;20.00;99.90;;;;;;4974895;28;20122;-88
2021/06/10 06:39:51;;;;;;;7.20;4.53;;;20.20;99.90;;;;;;4978910;28;20027;-88
2021/06/10 06:42:17;;;;;;;5.53;4.55;;;20.30;99.90;;;;;;4976951;28;20522;-87
2021/06/10 06:44:43;;;;;;;5.13;4.57;;;20.40;99.90;;;;;;4978158;28;20033;-86
2021/06/10 06:47:09;;;;;;;6.30;4.65;;;20.40;99.90;;;;;;4993789;28;20047;-85
2021/06/10 06:49:35;;;;;;;8.45;5.07;;;20.40;99.90;;;;;;4977534;28;20019;-85
2021/06/10 06:52:01;;;;;;;6.88;4.43;;;20.30;99.90;;;;;;4978350;28;20141;-85
2021/06/10 06:54:26;;;;;;;8.02;5.05;;;20.30;99.90;;;;;;4975365;28;20098;-85
2021/06/10 06:56:52;;;;;;;4.47;4.07;;;20.30;99.90;;;;;;4981421;28;20047;-85
2021/06/10 06:59:18;;;;;;;5.22;4.32;;;20.40;99.90;;;;;;4979291;28;20486;-85
2021/06/10 07:01:43;;;;;;;4.70;3.90;;;20.40;99.90;;;;;;4982535;28;20030;-85
2021/06/10 07:04:09;;;;;;;6.90;4.30;;;20.40;99.90;;;;;;4978290;28;20093;-86
2021/06/10 07:06:35;;;;;;;6.57;4.70;;;20.50;99.90;;;;;;4984657;28;20034;-85
2021/06/10 07:09:00;;;;;;;8.15;4.82;;;20.40;99.90;;;;;;4975997;28;20034;-85
2021/06/10 07:11:26;;;;;;;7.68;4.88;;;20.40;99.90;;;;;;4983307;28;20031;-86
2021/06/10 07:13:52;;;;;;;7.30;4.07;;;20.30;99.90;;;;;;4991456;28;20526;-86
2021/06/10 07:16:17;;;;;;;6.47;4.68;;;20.10;99.90;;;;;;4970563;28;20026;-86
2021/06/10 07:18:43;;;;;;;6.78;4.38;;;20.10;99.90;;;;;;4972794;28;20035;-86
2021/06/10 07:21:09;;;;;;;5.68;4.63;;;20.10;99.90;;;;;;4976544;28;20029;-86
2021/06/10 07:23:35;;;;;;;7.80;4.32;;;20.10;99.90;;;;;;4973065;28;20023;-86
2021/06/10 07:26:01;;;;;;;7.70;4.40;;;20.30;99.90;;;;;;4978087;28;20034;-86
2021/06/10 07:28:27;;;;;;;5.72;4.40;;;20.30;99.90;;;;;;4972497;28;20415;-85
2021/06/10 07:30:52;;;;;;;6.40;4.70;;;20.30;99.90;;;;;;4967450;28;20287;-86
2021/06/10 07:33:19;;;;;;;6.28;4.57;;;20.30;99.90;;;;;;4971393;28;20030;-85
2021/06/10 07:35:45;;;;;;;4.55;4.15;;;20.40;99.90;;;;;;4979296;28;20022;-86
2021/06/10 07:38:11;;;;;;;6.40;3.72;;;20.50;99.90;;;;;;4972553;28;20030;-84
2021/06/10 07:40:38;;;;;;;4.55;3.90;;;20.60;99.90;;;;;;4981450;28;20096;-88
2021/06/10 07:43:04;;;;;;;7.03;4.57;;;20.60;99.90;;;;;;4959333;28;20019;-87
2021/06/10 07:45:31;;;;;;;7.13;5.20;;;20.70;99.90;;;;;;4981273;28;20515;-90
2021/06/10 07:47:57;;;;;;;5.40;4.88;;;20.70;99.90;;;;;;4975031;28;20119;-86
2021/06/10 07:50:23;;;;;;;6.22;4.50;;;20.70;99.90;;;;;;4990535;28;20046;-87
2021/06/10 07:52:49;;;;;;;6.72;4.30;;;20.70;99.90;;;;;;4971322;28;20188;-86
2021/06/10 07:55:16;;;;;;;4.32;3.92;;;20.70;99.90;;;;;;4972539;28;20030;-86
2021/06/10 07:57:41;;;;;;;6.05;3.75;;;20.70;99.90;;;;;;4969385;28;20074;-87
2021/06/10 08:00:08;;;;;;;5.25;4.75;;;20.70;99.90;;;;;;4984827;28;20490;-88
2021/06/10 08:02:34;;;;;;;6.32;4.50;;;20.70;99.90;;;;;;4972356;28;20027;-86
2021/06/10 08:05:04;;;;;;;4.93;4.13;;;20.80;99.90;;;;;;4979689;28;20173;-89
2021/06/10 08:07:30;;;;;;;5.45;3.70;;;20.90;99.90;;;;;;4974941;28;20027;-88
2021/06/10 08:09:56;;;;;;;6.40;4.00;;;21.00;99.90;;;;;;4978304;28;20514;-87
2021/06/10 08:12:23;;;;;;;6.90;4.50;;;21.00;99.90;;;;;;4977891;28;20130;-88
2021/06/10 08:14:52;;;;;;;5.47;3.97;;;21.10;99.90;;;;;;4979826;28;20031;-88
2021/06/10 08:17:18;;;;;;;7.40;3.58;;;21.30;99.90;;;;;;4973571;28;20023;-89
2021/06/10 08:19:44;;;;;;;6.70;4.00;;;21.40;99.90;;;;;;4972073;28;20046;-89
2021/06/10 08:22:10;;;;;;;4.30;3.90;;;21.50;99.90;;;;;;4960546;28;20078;-90
2021/06/10 08:24:36;;;;;;;4.53;3.30;;;21.50;99.90;;;;;;4976724;28;20015;-88
2021/06/10 08:27:02;;;;;;;5.65;3.72;;;21.70;99.90;;;;;;4972848;28;20031;-87
2021/06/10 08:29:29;;;;;;;6.88;3.92;;;21.80;99.90;;;;;;4970725;28;20027;-87
2021/06/10 08:31:55;;;;;;;9.02;5.15;;;22.00;99.90;;;;;;4979623;28;20034;-88
2021/06/10 08:34:22;;;;;;;9.50;4.70;;;21.90;99.90;;;;;;4977266;28;20023;-91
2021/06/10 08:36:49;;;;;;;7.80;4.65;;;22.00;99.90;;;;;;4980550;28;20037;-87
2021/06/10 08:39:16;;;;;;;8.73;4.70;;;22.00;99.90;;;;;;4978195;28;20030;-89
2021/06/10 08:41:43;;;;;;;5.63;5.07;;;21.90;99.90;;;;;;4981330;28;20031;-84
2021/06/10 08:44:09;;;;;;;9.25;4.50;;;21.90;99.90;;;;;;4978263;28;20155;-84
2021/06/10 08:46:36;;;;;;;7.97;5.30;;;21.90;99.90;;;;;;4996526;28;20491;-85
2021/06/10 08:49:04;;;;;;;6.72;5.25;;;21.90;99.90;;;;;;4978847;28;20023;-85
2021/06/10 08:51:30;;;;;;;9.27;5.75;;;21.80;99.90;;;;;;4982470;28;20033;-84
2021/06/10 08:53:57;;;;;;;9.10;5.57;;;21.90;99.90;;;;;;4978262;28;20446;-84
2021/06/10 08:56:27;;;;;;;9.02;5.95;;;21.90;99.90;;;;;;4982673;28;20115;-83
2021/06/10 08:58:54;;;;;;;9.88;6.00;;;21.90;99.90;;;;;;4976535;28;20038;-86
2021/06/10 09:01:20;;;;;;;10.50;6.10;;;21.80;99.90;;;;;;4987100;28;20034;-85
2021/06/10 09:03:45;;;;;;;11.30;5.70;;;21.80;99.90;;;;;;4976660;28;20041;-83
2021/06/10 09:06:17;;;;;;;8.25;5.60;;;21.80;99.90;;;;;;4981828;28;20133;-86
2021/06/10 09:08:48;;;;;;;10.23;6.07;;;21.80;99.90;;;;;;4975355;28;20479;-85
2021/06/10 09:11:25;;;;;;;10.10;5.90;;;21.90;99.90;;;;;;4980174;28;20026;-86
2021/06/10 09:13:58;;;;;;;10.25;6.20;;;22.00;99.90;;;;;;4977429;28;20094;-83
2021/06/10 09:16:29;;;;;;;8.10;6.90;;;22.10;99.90;;;;;;4995039;28;20511;-83
2021/06/10 09:19:03;;;;;;;9.77;7.95;;;22.10;99.90;;;;;;4979915;28;20525;-84
2021/06/10 09:21:45;;;;;;;11.27;8.48;;;22.00;99.90;;;;;;4990816;28;20077;-84
2021/06/10 09:24:31;;;;;;;12.15;9.30;;;22.10;99.90;;;;;;4976915;28;20537;-83
2021/06/10 09:27:06;;;;;;;16.17;9.95;;;22.10;99.90;;;;;;4972402;28;20032;-85
2021/06/10 09:29:45;;;;;;;15.45;8.70;;;22.10;99.90;;;;;;4975838;28;20045;-85
2021/06/10 09:32:25;;;;;;;15.07;8.40;;;22.20;99.90;;;;;;4971715;28;20065;-83
2021/06/10 09:34:54;;;;;;;12.48;9.30;;;22.20;99.90;;;;;;4977964;28;20062;-83
2021/06/10 09:37:32;;;;;;;13.70;8.77;;;22.30;99.90;;;;;;4976558;28;20019;-85
2021/06/10 09:39:59;;;;;;;14.55;7.88;;;22.30;99.90;;;;;;4979587;28;20027;-83
2021/06/10 09:42:33;;;;;;;11.13;7.07;;;22.30;99.90;;;;;;4976283;28;20479;-84
2021/06/10 09:45:00;;;;;;;12.13;7.50;;;22.30;99.90;;;;;;4980324;28;20030;-77
2021/06/10 09:47:40;;;;;;;13.18;7.90;;;22.20;99.90;;;;;;4977221;28;20041;-79
2021/06/10 09:50:16;;;;;;;11.95;6.38;;;22.30;99.90;;;;;;4981588;28;20025;-80
2021/06/10 09:52:49;;;;;;;8.73;6.43;;;22.40;99.90;;;;;;4990594;28;20034;-76
2021/06/10 09:55:31;;;;;;;10.15;6.47;;;22.40;99.80;;;;;;4968380;28;20034;-77
2021/06/10 09:58:07;;;;;;;12.95;7.70;;;22.60;99.90;;;;;;4972207;28;20451;-79
2021/06/10 10:00:33;;;;;;;15.05;7.30;;;22.40;99.90;;;;;;4981266;28;20045;-78
2021/06/10 10:02:59;;;;;;;9.57;5.88;;;22.40;99.80;;;;;;4976769;28;20526;-79
2021/06/10 10:05:25;;;;;;;9.70;6.03;;;22.50;99.40;;;;;;4984761;28;20471;-78
2021/06/10 10:07:55;;;;;;;10.55;6.25;;;22.60;98.90;;;;;;4977168;28;20111;-78
2021/06/10 10:10:22;;;;;;;9.68;5.43;;;22.50;99.20;;;;;;4995934;28;20035;-77
2021/06/10 10:12:49;;;;;;;16.08;7.60;;;22.50;98.50;;;;;;4978261;28;20023;-78
2021/06/10 10:15:17;;;;;;;5.97;3.75;;;22.50;98.90;;;;;;4980792;28;20080;-78
2021/06/10 10:17:45;;;;;;;10.88;3.88;;;22.50;98.90;;;;;;4980177;28;20427;-78
2021/06/10 10:20:13;;;;;;;7.30;4.30;;;22.50;98.50;;;;;;4977736;28;20030;-78
2021/06/10 10:22:39;;;;;;;6.53;4.53;;;22.50;98.90;;;;;;4971425;28;20531;-78
2021/06/10 10:25:05;;;;;;;10.75;5.10;;;22.60;98.00;;;;;;4979749;28;20167;-77
2021/06/10 10:27:31;;;;;;;11.32;5.82;;;22.70;98.40;;;;;;4985436;28;20495;-79
2021/06/10 10:29:57;;;;;;;11.90;4.72;;;22.80;98.00;;;;;;4976566;28;20069;-78
2021/06/10 10:32:28;;;;;;;9.85;5.00;;;22.80;97.60;;;;;;4974474;28;20027;-77
2021/06/10 10:35:12;;;;;;;14.52;4.70;;;22.80;97.70;;;;;;4976994;28;20056;-76
2021/06/10 10:37:38;;;;;;;;;;;22.80;97.00;;;;;;4973745;28;20114;-77
2021/06/10 10:40:08;;;;;;;11.27;4.90;;;22.90;96.60;;;;;;4978752;28;20005;-78
2021/06/10 10:42:36;;;;;;;8.35;5.05;;;23.10;97.00;;;;;;4974473;28;20162;-77
2021/06/10 10:45:11;;;;;;;12.43;5.95;;;23.30;96.80;;;;;;4979252;28;20084;-77
2021/06/10 10:47:41;;;;;;;8.73;4.95;;;23.40;96.90;;;;;;4974600;28;20546;-78
2021/06/10 10:50:07;;;;;;;9.43;5.90;;;23.50;96.90;;;;;;4979382;28;20442;-77
2021/06/10 10:52:39;;;;;;;11.40;5.38;;;23.70;96.50;;;;;;4990773;28;20455;-78
2021/06/10 10:55:20;;;;;;;12.10;7.25;;;23.90;97.00;;;;;;4980701;28;20038;-78
2021/06/10 10:57:46;;;;;;;7.97;5.22;;;24.00;96.50;;;;;;4975954;28;20050;-78
2021/06/10 11:00:18;;;;;;;8.88;5.18;;;24.10;96.80;;;;;;4983059;28;20395;-78
2021/06/10 11:03:22;;;;;;;11.93;6.25;;;24.20;97.40;;;;;;4976779;28;20027;-77
2021/06/10 11:05:48;;;;;;;14.73;7.03;;;24.10;96.60;;;;;;4984206;28;20427;-78
2021/06/10 11:08:14;;;;;;;9.65;6.25;;;24.10;96.80;;;;;;4974329;28;20022;-78
2021/06/10 11:10:40;;;;;;;12.52;5.53;;;24.00;96.60;;;;;;4981213;28;20110;-77
2021/06/10 11:13:25;;;;;;;10.30;5.50;;;24.00;96.80;;;;;;4976129;28;20026;-77
2021/06/10 11:16:00;;;;;;;8.45;5.45;;;24.10;96.80;;;;;;4981076;28;20038;-77
2021/06/10 11:18:45;;;;;;;10.43;6.93;;;24.20;96.70;;;;;;4977752;28;20426;-77
2021/06/10 11:21:32;;;;;;;10.40;5.50;;;24.30;96.30;;;;;;4977796;28;20537;-77
2021/06/10 11:24:12;;;;;;;16.55;7.43;;;24.50;96.40;;;;;;4966441;28;20027;-77
2021/06/10 11:26:58;;;;;;;12.13;6.68;;;24.40;95.40;;;;;;4973044;28;20522;-77
2021/06/10 11:29:23;;;;;;;13.48;6.28;;;24.50;96.00;;;;;;4973514;28;20042;-77
2021/06/10 11:32:19;;;;;;;7.13;3.80;;;24.70;95.70;;;;;;4976606;28;20484;-77
2021/06/10 11:34:50;;;;;;;13.68;5.22;;;24.50;95.20;;;;;;4975147;28;20069;-76
2021/06/10 11:37:20;;;;;;;4.32;3.70;;;24.60;95.10;;;;;;4977981;28;20511;-77
2021/06/10 11:39:45;;;;;;;4.70;3.33;;;24.60;94.40;;;;;;4980088;28;20430;-77
2021/06/10 11:42:12;;;;;;;7.65;3.97;;;24.60;94.60;;;;;;4981451;28;20035;-76
2021/06/10 11:44:47;;;;;;;8.77;3.42;;;24.80;94.40;;;;;;4980091;28;20081;-77
2021/06/10 11:47:25;;;;;;;7.65;4.13;;;24.80;94.60;;;;;;4973546;28;20038;-78
2021/06/10 11:49:51;;;;;;;6.45;4.43;;;25.00;94.60;;;;;;4981552;28;20023;-76
2021/06/10 11:52:16;;;;;;;7.95;3.35;;;25.00;94.70;;;;;;4973701;28;20030;-77
2021/06/10 11:55:06;;;;;;;6.72;3.42;;;25.40;95.70;;;;;;4979478;28;20027;-77
2021/06/10 11:57:32;;;;;;;4.72;3.30;;;25.80;94.90;;;;;;4973363;28;20309;-78
2021/06/10 12:00:06;;;;;;;4.43;2.90;;;26.00;93.50;;;;;;4980856;28;20266;-77
2021/06/10 12:02:31;;;;;;;6.47;3.53;;;25.90;93.50;;;;;;4974174;28;20101;-76
2021/06/10 12:05:14;;;;;;;7.10;3.25;;;25.80;93.50;;;;;;4980063;28;20034;-77
2021/06/10 12:07:40;;;;;;;6.60;3.25;;;25.90;93.90;;;;;;4980841;28;20399;-78
2021/06/10 12:10:09;;;;;;;6.03;2.90;;;25.90;93.50;;;;;;4980963;28;20110;-77
2021/06/10 12:12:43;;;;;;;8.85;3.47;;;26.10;92.50;;;;;;4973023;28;20085;-78
2021/06/10 12:15:28;;;;;;;3.88;2.80;;;26.30;92.20;;;;;;4978042;28;20025;-78
2021/06/10 12:17:56;;;;;;;3.97;2.80;;;26.70;91.70;;;;;;4973841;28;20034;-79
2021/06/10 12:20:24;;;;;;;6.63;2.53;;;26.40;91.20;;;;;;4982608;28;20479;-79
2021/06/10 12:22:50;;;;;;;4.30;2.53;;;26.40;91.10;;;;;;4973384;28;20027;-78
2021/06/10 12:25:18;;;;;;;5.28;2.70;;;26.70;90.70;;;;;;4972615;28;20035;-78
2021/06/10 12:27:44;;;;;;;5.47;3.13;;;27.10;90.10;;;;;;4973273;28;20035;-79
2021/06/10 12:30:33;;;;;;;4.57;2.63;;;26.90;89.30;;;;;;4977852;28;20104;-80
2021/06/10 12:33:16;;;;;;;4.40;2.50;;;27.20;87.60;;;;;;4974340;28;20506;-77
2021/06/10 12:35:44;;;;;;;6.07;2.83;;;27.20;87.80;;;;;;4984820;28;20388;-78
2021/06/10 12:38:12;;;;;;;9.95;2.70;;;26.90;88.60;;;;;;4977656;28;20521;-78
2021/06/10 12:40:46;;;;;;;6.97;3.33;;;27.00;89.70;;;;;;4973864;28;20023;-79
2021/06/10 12:43:13;;;;;;;7.32;2.70;;;27.30;87.20;;;;;;4974491;28;20446;-79
2021/06/10 12:45:40;;;;;;;5.82;3.15;;;28.10;86.90;;;;;;4971307;28;20043;-77
2021/06/10 12:48:32;;;;;;;8.43;2.70;;;28.00;84.20;;;;;;4974288;28;20026;-78